sensor_id;sensor_type;location;lat;lon;timestamp;temperature;humidity
52073;DHT22;38074;51.232;6.826;2023-06-26T00:03:40;27.30;49.50
52073;DHT22;38074;51.232;6.826;2023-06-26T00:10:56;27.30;49.50
52073;DHT22;38074;51.232;6.826;2023-06-26T00:18:11;27.30;49.50
52073;DHT22;38074;51.232;6.826;2023-06-26T00:25:27;27.30;49.60
52073;DHT22;38074;51.232;6.826;2023-06-26T00:32:42;27.30;49.60
52073;DHT22;38074;51.232;6.826;2023-06-26T00:39:58;27.30;49.60
52073;DHT22;38074;51.232;6.826;2023-06-26T00:47:15;27.30;49.60
52073;DHT22;38074;51.232;6.826;2023-06-26T00:54:31;27.30;49.70
52073;DHT22;38074;51.232;6.826;2023-06-26T01:01:47;27.30;49.70
52073;DHT22;38074;51.232;6.826;2023-06-26T01:09:03;27.20;49.70
52073;DHT22;38074;51.232;6.826;2023-06-26T01:16:19;27.30;49.80
52073;DHT22;38074;51.232;6.826;2023-06-26T01:24:02;27.30;49.80
52073;DHT22;38074;51.232;6.826;2023-06-26T01:31:15;27.30;50.40
52073;DHT22;38074;51.232;6.826;2023-06-26T01:38:31;27.30;49.80
52073;DHT22;38074;51.232;6.826;2023-06-26T01:45:48;27.20;49.70
52073;DHT22;38074;51.232;6.826;2023-06-26T01:53:12;27.20;49.70
52073;DHT22;38074;51.232;6.826;2023-06-26T02:00:28;27.30;49.80
52073;DHT22;38074;51.232;6.826;2023-06-26T02:07:44;27.30;49.80
52073;DHT22;38074;51.232;6.826;2023-06-26T02:15:00;27.20;49.80
52073;DHT22;38074;51.232;6.826;2023-06-26T02:22:16;27.20;49.80
52073;DHT22;38074;51.232;6.826;2023-06-26T02:29:32;27.20;49.70
52073;DHT22;38074;51.232;6.826;2023-06-26T02:36:48;27.30;49.80
52073;DHT22;38074;51.232;6.826;2023-06-26T02:44:04;27.20;49.70
52073;DHT22;38074;51.232;6.826;2023-06-26T02:51:19;27.20;49.70
52073;DHT22;38074;51.232;6.826;2023-06-26T02:58:35;27.20;49.70
52073;DHT22;38074;51.232;6.826;2023-06-26T03:05:50;27.20;49.70
52073;DHT22;38074;51.232;6.826;2023-06-26T03:13:06;27.20;49.70
52073;DHT22;38074;51.232;6.826;2023-06-26T03:20:21;27.20;49.70
52073;DHT22;38074;51.232;6.826;2023-06-26T03:27:37;27.20;49.70
52073;DHT22;38074;51.232;6.826;2023-06-26T03:34:52;27.20;49.70
52073;DHT22;38074;51.232;6.826;2023-06-26T03:42:08;27.20;49.70
52073;DHT22;38074;51.232;6.826;2023-06-26T03:49:23;27.20;49.70
52073;DHT22;38074;51.232;6.826;2023-06-26T03:56:39;27.20;49.70
52073;DHT22;38074;51.232;6.826;2023-06-26T04:03:54;27.20;49.70
52073;DHT22;38074;51.232;6.826;2023-06-26T04:11:10;27.20;49.70
52073;DHT22;38074;51.232;6.826;2023-06-26T04:18:26;27.20;49.70
52073;DHT22;38074;51.232;6.826;2023-06-26T04:25:41;27.20;49.70
52073;DHT22;38074;51.232;6.826;2023-06-26T04:32:57;27.20;49.70
52073;DHT22;38074;51.232;6.826;2023-06-26T04:40:14;27.20;49.80
52073;DHT22;38074;51.232;6.826;2023-06-26T04:47:29;27.30;49.80
52073;DHT22;38074;51.232;6.826;2023-06-26T04:54:45;27.20;49.80
52073;DHT22;38074;51.232;6.826;2023-06-26T05:02:00;27.30;49.80
52073;DHT22;38074;51.232;6.826;2023-06-26T05:09:16;27.20;49.80
52073;DHT22;38074;51.232;6.826;2023-06-26T05:16:31;27.20;49.90
52073;DHT22;38074;51.232;6.826;2023-06-26T05:23:47;27.20;49.80
52073;DHT22;38074;51.232;6.826;2023-06-26T05:31:04;27.30;49.90
52073;DHT22;38074;51.232;6.826;2023-06-26T05:38:20;27.20;49.80
52073;DHT22;38074;51.232;6.826;2023-06-26T05:45:36;27.30;49.90
52073;DHT22;38074;51.232;6.826;2023-06-26T05:52:52;27.30;49.90
52073;DHT22;38074;51.232;6.826;2023-06-26T06:00:08;27.30;49.90
52073;DHT22;38074;51.232;6.826;2023-06-26T06:07:25;27.30;49.80
52073;DHT22;38074;51.232;6.826;2023-06-26T06:14:41;27.30;49.90
52073;DHT22;38074;51.232;6.826;2023-06-26T06:21:56;27.30;49.80
52073;DHT22;38074;51.232;6.826;2023-06-26T06:29:12;27.30;49.90
52073;DHT22;38074;51.232;6.826;2023-06-26T06:36:28;27.30;49.90
52073;DHT22;38074;51.232;6.826;2023-06-26T06:43:43;27.30;49.90
52073;DHT22;38074;51.232;6.826;2023-06-26T06:50:59;27.30;49.90
52073;DHT22;38074;51.232;6.826;2023-06-26T06:58:14;27.30;49.90
52073;DHT22;38074;51.232;6.826;2023-06-26T07:05:31;27.30;49.90
52073;DHT22;38074;51.232;6.826;2023-06-26T07:12:47;27.30;50.00
52073;DHT22;38074;51.232;6.826;2023-06-26T07:20:03;27.30;50.00
52073;DHT22;38074;51.232;6.826;2023-06-26T07:27:21;27.30;50.00
52073;DHT22;38074;51.232;6.826;2023-06-26T07:34:37;27.30;50.00
52073;DHT22;38074;51.232;6.826;2023-06-26T07:41:53;27.30;50.10
52073;DHT22;38074;51.232;6.826;2023-06-26T07:49:08;27.30;50.10
52073;DHT22;38074;51.232;6.826;2023-06-26T07:56:24;27.30;50.10
52073;DHT22;38074;51.232;6.826;2023-06-26T08:03:39;27.30;50.10
52073;DHT22;38074;51.232;6.826;2023-06-26T08:10:55;27.30;50.10
52073;DHT22;38074;51.232;6.826;2023-06-26T08:18:11;27.30;50.10
52073;DHT22;38074;51.232;6.826;2023-06-26T08:25:26;27.30;50.20
52073;DHT22;38074;51.232;6.826;2023-06-26T08:32:42;27.30;50.20
52073;DHT22;38074;51.232;6.826;2023-06-26T08:39:57;27.30;50.30
52073;DHT22;38074;51.232;6.826;2023-06-26T08:47:13;27.30;50.30
52073;DHT22;38074;51.232;6.826;2023-06-26T08:54:34;27.30;50.30
52073;DHT22;38074;51.232;6.826;2023-06-26T09:01:51;27.30;50.40
52073;DHT22;38074;51.232;6.826;2023-06-26T09:09:07;27.30;50.40
52073;DHT22;38074;51.232;6.826;2023-06-26T09:16:26;27.30;50.40
52073;DHT22;38074;51.232;6.826;2023-06-26T09:23:42;27.30;50.40
52073;DHT22;38074;51.232;6.826;2023-06-26T09:31:05;27.30;50.40
52073;DHT22;38074;51.232;6.826;2023-06-26T09:38:21;27.30;50.40
52073;DHT22;38074;51.232;6.826;2023-06-26T09:45:37;27.30;50.40
52073;DHT22;38074;51.232;6.826;2023-06-26T09:52:55;27.40;50.50
52073;DHT22;38074;51.232;6.826;2023-06-26T10:00:11;27.30;50.40
52073;DHT22;38074;51.232;6.826;2023-06-26T10:07:27;27.30;50.40
52073;DHT22;38074;51.232;6.826;2023-06-26T10:14:43;27.30;50.40
52073;DHT22;38074;51.232;6.826;2023-06-26T10:22:00;27.40;50.40
52073;DHT22;38074;51.232;6.826;2023-06-26T10:29:18;27.30;50.40
52073;DHT22;38074;51.232;6.826;2023-06-26T10:36:35;27.30;50.30
52073;DHT22;38074;51.232;6.826;2023-06-26T10:44:05;27.30;50.20
52073;DHT22;38074;51.232;6.826;2023-06-26T10:51:22;27.30;50.10
52073;DHT22;38074;51.232;6.826;2023-06-26T11:06:11;27.30;50.00
52073;DHT22;38074;51.232;6.826;2023-06-26T11:13:28;27.30;50.00
52073;DHT22;38074;51.232;6.826;2023-06-26T11:20:44;27.30;49.90
52073;DHT22;38074;51.232;6.826;2023-06-26T11:28:00;27.30;49.90
52073;DHT22;38074;51.232;6.826;2023-06-26T11:35:25;27.30;49.80
52073;DHT22;38074;51.232;6.826;2023-06-26T11:42:45;27.30;49.60
52073;DHT22;38074;51.232;6.826;2023-06-26T11:50:04;27.30;49.50
52073;DHT22;38074;51.232;6.826;2023-06-26T11:57:20;27.30;49.40
52073;DHT22;38074;51.232;6.826;2023-06-26T12:04:41;27.30;49.30
52073;DHT22;38074;51.232;6.826;2023-06-26T12:11:57;27.30;49.10
52073;DHT22;38074;51.232;6.826;2023-06-26T12:19:13;27.30;49.00
52073;DHT22;38074;51.232;6.826;2023-06-26T12:26:29;27.30;48.80
52073;DHT22;38074;51.232;6.826;2023-06-26T12:33:45;27.30;48.80
52073;DHT22;38074;51.232;6.826;2023-06-26T12:41:01;27.30;48.70
52073;DHT22;38074;51.232;6.826;2023-06-26T12:48:16;27.30;48.60
52073;DHT22;38074;51.232;6.826;2023-06-26T12:55:33;27.30;48.40
52073;DHT22;38074;51.232;6.826;2023-06-26T13:02:48;27.30;48.30
52073;DHT22;38074;51.232;6.826;2023-06-26T13:10:04;27.30;48.30
52073;DHT22;38074;51.232;6.826;2023-06-26T13:17:21;27.30;48.60
52073;DHT22;38074;51.232;6.826;2023-06-26T13:24:36;27.30;47.90
52073;DHT22;38074;51.232;6.826;2023-06-26T13:31:52;27.30;47.70
52073;DHT22;38074;51.232;6.826;2023-06-26T13:39:07;27.30;47.60
52073;DHT22;38074;51.232;6.826;2023-06-26T13:46:23;27.30;47.40
52073;DHT22;38074;51.232;6.826;2023-06-26T13:53:39;27.30;47.30
52073;DHT22;38074;51.232;6.826;2023-06-26T14:00:55;27.30;47.20
52073;DHT22;38074;51.232;6.826;2023-06-26T14:08:11;27.30;47.00
52073;DHT22;38074;51.232;6.826;2023-06-26T14:15:26;27.30;47.00
52073;DHT22;38074;51.232;6.826;2023-06-26T14:22:43;27.30;46.90
52073;DHT22;38074;51.232;6.826;2023-06-26T14:29:59;27.30;47.30
52073;DHT22;38074;51.232;6.826;2023-06-26T14:37:14;27.30;46.70
52073;DHT22;38074;51.232;6.826;2023-06-26T14:44:31;27.30;46.50
52073;DHT22;38074;51.232;6.826;2023-06-26T14:51:47;27.30;46.40
52073;DHT22;38074;51.232;6.826;2023-06-26T14:59:02;27.30;46.30
52073;DHT22;38074;51.232;6.826;2023-06-26T15:06:18;27.30;46.20
52073;DHT22;38074;51.232;6.826;2023-06-26T15:13:33;27.30;46.10
52073;DHT22;38074;51.232;6.826;2023-06-26T15:20:49;27.30;46.00
52073;DHT22;38074;51.232;6.826;2023-06-26T15:28:06;27.30;45.90
52073;DHT22;38074;51.232;6.826;2023-06-26T15:35:21;27.30;45.80
52073;DHT22;38074;51.232;6.826;2023-06-26T15:42:50;27.30;45.70
52073;DHT22;38074;51.232;6.826;2023-06-26T15:50:07;27.30;45.60
52073;DHT22;38074;51.232;6.826;2023-06-26T15:57:23;27.30;45.60
52073;DHT22;38074;51.232;6.826;2023-06-26T16:04:39;27.30;45.50
52073;DHT22;38074;51.232;6.826;2023-06-26T16:11:54;27.40;45.50
52073;DHT22;38074;51.232;6.826;2023-06-26T16:19:10;27.30;46.00
52073;DHT22;38074;51.232;6.826;2023-06-26T16:26:25;27.30;45.20
52073;DHT22;38074;51.232;6.826;2023-06-26T16:33:41;27.40;45.30
52073;DHT22;38074;51.232;6.826;2023-06-26T16:40:56;27.30;45.10
52073;DHT22;38074;51.232;6.826;2023-06-26T16:48:12;27.30;45.00
52073;DHT22;38074;51.232;6.826;2023-06-26T16:55:29;27.30;44.90
52073;DHT22;38074;51.232;6.826;2023-06-26T17:02:44;27.30;44.90
52073;DHT22;38074;51.232;6.826;2023-06-26T17:10:01;27.30;44.80
52073;DHT22;38074;51.232;6.826;2023-06-26T17:17:16;27.30;44.70
52073;DHT22;38074;51.232;6.826;2023-06-26T17:24:33;27.30;44.70
52073;DHT22;38074;51.232;6.826;2023-06-26T17:31:49;27.30;44.60
52073;DHT22;38074;51.232;6.826;2023-06-26T17:39:04;27.40;44.60
52073;DHT22;38074;51.232;6.826;2023-06-26T17:46:20;27.30;44.50
52073;DHT22;38074;51.232;6.826;2023-06-26T17:53:36;27.30;44.50
52073;DHT22;38074;51.232;6.826;2023-06-26T18:00:53;27.30;44.40
52073;DHT22;38074;51.232;6.826;2023-06-26T18:08:09;27.30;44.30
52073;DHT22;38074;51.232;6.826;2023-06-26T18:15:25;27.30;44.30
52073;DHT22;38074;51.232;6.826;2023-06-26T18:22:41;27.30;44.20
52073;DHT22;38074;51.232;6.826;2023-06-26T18:29:57;27.40;44.20
52073;DHT22;38074;51.232;6.826;2023-06-26T18:37:12;27.30;44.00
52073;DHT22;38074;51.232;6.826;2023-06-26T18:44:28;27.30;44.00
52073;DHT22;38074;51.232;6.826;2023-06-26T18:51:43;27.30;43.90
52073;DHT22;38074;51.232;6.826;2023-06-26T18:58:59;27.30;43.90
52073;DHT22;38074;51.232;6.826;2023-06-26T19:06:14;27.30;43.80
52073;DHT22;38074;51.232;6.826;2023-06-26T19:13:30;27.30;43.80
52073;DHT22;38074;51.232;6.826;2023-06-26T19:20:46;27.30;43.70
52073;DHT22;38074;51.232;6.826;2023-06-26T19:28:01;27.30;43.70
52073;DHT22;38074;51.232;6.826;2023-06-26T19:35:17;27.40;43.70
52073;DHT22;38074;51.232;6.826;2023-06-26T19:42:33;27.30;43.60
52073;DHT22;38074;51.232;6.826;2023-06-26T19:49:49;27.30;43.60
52073;DHT22;38074;51.232;6.826;2023-06-26T19:57:04;27.40;43.70
52073;DHT22;38074;51.232;6.826;2023-06-26T20:04:20;27.40;43.60
52073;DHT22;38074;51.232;6.826;2023-06-26T20:11:35;27.30;43.60
52073;DHT22;38074;51.232;6.826;2023-06-26T20:18:51;27.30;43.50
52073;DHT22;38074;51.232;6.826;2023-06-26T20:26:07;27.40;43.60
52073;DHT22;38074;51.232;6.826;2023-06-26T20:33:22;27.30;43.50
52073;DHT22;38074;51.232;6.826;2023-06-26T20:40:38;27.30;43.50
52073;DHT22;38074;51.232;6.826;2023-06-26T20:47:54;27.30;43.50
52073;DHT22;38074;51.232;6.826;2023-06-26T20:55:10;27.40;43.50
52073;DHT22;38074;51.232;6.826;2023-06-26T21:02:26;27.40;43.60
52073;DHT22;38074;51.232;6.826;2023-06-26T21:09:42;27.40;43.60
52073;DHT22;38074;51.232;6.826;2023-06-26T21:16:57;27.30;43.50
52073;DHT22;38074;51.232;6.826;2023-06-26T21:24:13;27.40;43.50
52073;DHT22;38074;51.232;6.826;2023-06-26T21:31:28;27.40;43.50
52073;DHT22;38074;51.232;6.826;2023-06-26T21:38:44;27.30;44.10
52073;DHT22;38074;51.232;6.826;2023-06-26T21:45:59;27.40;43.50
52073;DHT22;38074;51.232;6.826;2023-06-26T21:53:15;27.30;43.50
52073;DHT22;38074;51.232;6.826;2023-06-26T22:00:30;27.40;43.50
52073;DHT22;38074;51.232;6.826;2023-06-26T22:07:46;27.30;43.40
52073;DHT22;38074;51.232;6.826;2023-06-26T22:15:02;27.30;43.40
52073;DHT22;38074;51.232;6.826;2023-06-26T22:22:18;27.30;43.40
52073;DHT22;38074;51.232;6.826;2023-06-26T22:29:34;27.30;43.40
52073;DHT22;38074;51.232;6.826;2023-06-26T22:36:49;27.30;43.40
52073;DHT22;38074;51.232;6.826;2023-06-26T22:44:05;27.30;43.40
52073;DHT22;38074;51.232;6.826;2023-06-26T22:51:20;27.30;43.40
52073;DHT22;38074;51.232;6.826;2023-06-26T22:58:36;27.30;43.40
52073;DHT22;38074;51.232;6.826;2023-06-26T23:05:52;27.30;43.40
52073;DHT22;38074;51.232;6.826;2023-06-26T23:13:12;27.30;43.40
52073;DHT22;38074;51.232;6.826;2023-06-26T23:20:28;27.30;43.50
52073;DHT22;38074;51.232;6.826;2023-06-26T23:27:43;27.30;43.50
52073;DHT22;38074;51.232;6.826;2023-06-26T23:34:59;27.30;43.50
52073;DHT22;38074;51.232;6.826;2023-06-26T23:42:15;27.30;43.60
52073;DHT22;38074;51.232;6.826;2023-06-26T23:49:32;27.30;43.60
52073;DHT22;38074;51.232;6.826;2023-06-26T23:56:48;27.30;43.60
